createdAt,value
2023-04-23T00:02:27.019Z,14.80
2023-04-23T00:08:30.488Z,14.80
2023-04-23T00:14:32.801Z,14.90
2023-04-23T00:20:35.714Z,14.90
2023-04-23T00:26:37.903Z,14.90
2023-04-23T00:32:40.164Z,15.00
2023-04-23T00:38:42.434Z,14.80
2023-04-23T00:44:44.784Z,14.70
2023-04-23T00:50:46.982Z,14.80
2023-04-23T00:56:51.929Z,14.80
2023-04-23T01:02:54.896Z,14.70
2023-04-23T01:08:57.686Z,14.50
2023-04-23T01:15:00.464Z,14.40
2023-04-23T01:21:04.238Z,14.30
2023-04-23T01:27:07.638Z,14.30
2023-04-23T01:33:11.312Z,14.20
2023-04-23T01:39:13.342Z,14.10
2023-04-23T01:45:15.961Z,14.00
2023-04-23T01:51:21.051Z,13.90
2023-04-23T01:57:28.120Z,13.80
2023-04-23T02:03:33.201Z,13.80
2023-04-23T02:09:38.316Z,13.80
2023-04-23T02:15:40.988Z,13.70
2023-04-23T02:21:44.582Z,13.70
2023-04-23T02:27:49.609Z,13.60
2023-04-23T02:33:52.662Z,13.60
2023-04-23T02:46:44.158Z,13.60
2023-04-23T02:52:46.350Z,13.30
2023-04-23T02:58:48.257Z,13.00
2023-04-23T03:04:51.393Z,12.90
2023-04-23T03:10:53.199Z,12.80
2023-04-23T03:16:55.141Z,12.80
2023-04-23T03:22:57.915Z,12.80
2023-04-23T03:29:00.048Z,12.90
2023-04-23T03:35:01.963Z,12.90
2023-04-23T03:41:04.947Z,12.90
2023-04-23T03:47:07.275Z,12.80
2023-04-23T03:53:10.307Z,12.70
2023-04-23T03:59:30.799Z,12.60
2023-04-23T04:05:35.884Z,12.60
2023-04-23T04:11:37.837Z,12.50
2023-04-23T04:17:39.826Z,12.40
2023-04-23T04:23:41.613Z,12.30
2023-04-23T04:29:43.744Z,12.30
2023-04-23T04:35:45.700Z,12.30
2023-04-23T04:41:48.494Z,12.30
2023-04-23T04:47:50.443Z,12.30
2023-04-23T04:53:52.319Z,12.30
2023-04-23T04:59:54.156Z,12.20
2023-04-23T05:05:56.473Z,12.30
2023-04-23T05:11:58.336Z,12.20
2023-04-23T05:18:00.237Z,12.30
2023-04-23T05:24:02.073Z,12.30
2023-04-23T05:30:06.472Z,12.40
2023-04-23T05:36:08.437Z,12.40
2023-04-23T05:42:10.560Z,12.50
2023-04-23T05:48:12.400Z,12.50
2023-04-23T05:54:14.162Z,12.50
2023-04-23T06:00:17.131Z,12.50
2023-04-23T06:06:19.016Z,12.60
2023-04-23T06:12:21.016Z,12.60
2023-04-23T06:18:23.034Z,12.60
2023-04-23T06:24:24.840Z,12.70
2023-04-23T06:30:26.783Z,12.80
2023-04-23T06:36:28.668Z,12.90
2023-04-23T06:42:30.788Z,13.10
2023-04-23T06:48:47.626Z,13.40
2023-04-23T06:54:49.565Z,13.60
2023-04-23T07:00:51.430Z,14.00
2023-04-23T07:06:54.150Z,14.50
2023-04-23T07:12:56.796Z,15.20
2023-04-23T07:18:59.364Z,15.30
2023-04-23T07:25:02.562Z,15.30
2023-04-23T07:31:04.676Z,15.20
2023-04-23T07:37:07.185Z,15.60
2023-04-23T07:43:09.353Z,15.60
2023-04-23T07:49:14.731Z,15.70
2023-04-23T07:55:16.888Z,15.70
2023-04-23T08:01:19.397Z,15.70
2023-04-23T08:07:21.723Z,15.80
2023-04-23T08:13:23.949Z,16.10
2023-04-23T08:19:31.789Z,16.30
2023-04-23T08:25:34.081Z,16.40
2023-04-23T08:31:37.550Z,16.70
2023-04-23T08:37:40.337Z,16.80
2023-04-23T08:43:52.472Z,16.90
2023-04-23T08:49:56.270Z,17.00
2023-04-23T08:55:59.767Z,17.20
2023-04-23T09:02:08.229Z,17.20
2023-04-23T09:08:11.358Z,17.40
2023-04-23T09:14:14.483Z,17.40
2023-04-23T09:20:29.607Z,17.40
2023-04-23T09:26:32.368Z,17.50
2023-04-23T09:32:39.972Z,17.60
2023-04-23T09:38:42.560Z,17.70
2023-04-23T09:44:44.960Z,17.60
2023-04-23T09:50:47.760Z,17.80
2023-04-23T09:56:51.821Z,17.90
2023-04-23T10:02:54.587Z,18.00
2023-04-23T10:08:59.579Z,18.20
2023-04-23T10:15:04.027Z,18.40
2023-04-23T10:21:06.858Z,18.60
2023-04-23T10:27:24.810Z,18.70
2023-04-23T10:33:40.121Z,18.90
2023-04-23T10:39:52.100Z,19.10
2023-04-23T10:45:54.292Z,19.20
2023-04-23T10:52:21.173Z,19.80
2023-04-23T10:58:34.130Z,20.30
2023-04-23T11:04:42.274Z,19.90
2023-04-23T11:11:01.363Z,19.40
2023-04-23T11:17:06.821Z,19.20
2023-04-23T11:23:29.558Z,19.30
2023-04-23T11:29:31.931Z,19.80
2023-04-23T11:35:40.814Z,20.00
2023-04-23T11:41:43.825Z,20.20
2023-04-23T11:47:47.869Z,19.90
2023-04-23T11:54:05.733Z,20.50
2023-04-23T12:00:15.100Z,21.10
2023-04-23T12:06:19.064Z,21.30
2023-04-23T12:12:21.457Z,21.60
2023-04-23T12:18:39.279Z,21.60
2023-04-23T12:24:51.740Z,22.00
2023-04-23T12:30:54.317Z,21.80
2023-04-23T12:36:57.764Z,21.90
2023-04-23T12:43:00.165Z,22.30
2023-04-23T12:49:02.344Z,22.30
2023-04-23T12:55:05.310Z,21.90
2023-04-23T13:01:07.637Z,21.20
2023-04-23T13:07:10.429Z,20.60
2023-04-23T13:13:12.874Z,20.10
2023-04-23T13:19:17.587Z,20.00
2023-04-23T13:25:20.887Z,20.20
2023-04-23T13:31:23.460Z,20.60
2023-04-23T13:37:28.025Z,20.60
2023-04-23T13:43:30.785Z,20.50
2023-04-23T13:49:33.293Z,20.80
2023-04-23T13:55:35.732Z,20.90
2023-04-23T14:01:38.398Z,20.90
2023-04-23T14:07:41.684Z,20.50
2023-04-23T14:13:44.311Z,19.80
2023-04-23T14:19:48.007Z,19.30
2023-04-23T14:26:10.845Z,18.80
2023-04-23T14:32:13.880Z,18.40
2023-04-23T14:38:16.591Z,18.10
2023-04-23T14:44:19.557Z,18.20
2023-04-23T14:50:22.258Z,18.40
2023-04-23T14:56:24.609Z,18.90
2023-04-23T15:02:27.551Z,19.40
2023-04-23T15:08:30.299Z,20.30
2023-04-23T15:14:37.417Z,20.60
2023-04-23T15:20:39.661Z,21.50
2023-04-23T15:26:43.520Z,22.10
2023-04-23T15:32:45.873Z,22.20
2023-04-23T15:38:48.535Z,22.20
2023-04-23T15:44:54.573Z,23.80
2023-04-23T15:50:57.050Z,23.80
2023-04-23T15:56:59.534Z,24.50
2023-04-23T16:03:04.830Z,24.00
2023-04-23T16:09:08.304Z,22.30
2023-04-23T16:21:14.575Z,20.60
2023-04-23T16:27:16.926Z,20.10
2023-04-23T16:33:19.521Z,19.60
2023-04-23T16:39:22.239Z,19.30
2023-04-23T16:45:24.504Z,19.00
2023-04-23T16:51:28.471Z,19.00
2023-04-23T16:57:30.860Z,18.70
2023-04-23T17:03:33.968Z,18.40
2023-04-23T17:09:36.360Z,18.30
2023-04-23T17:15:38.573Z,18.00
2023-04-23T17:21:41.069Z,17.80
2023-04-23T17:27:43.249Z,17.40
2023-04-23T17:33:49.306Z,17.10
2023-04-23T17:39:51.989Z,16.90
2023-04-23T17:45:54.351Z,16.70
2023-04-23T17:51:56.831Z,16.40
2023-04-23T17:58:05.732Z,16.10
2023-04-23T18:04:08.613Z,15.70
2023-04-23T18:10:12.457Z,15.50
2023-04-23T18:16:15.103Z,15.40
2023-04-23T18:22:17.757Z,15.20
2023-04-23T18:28:19.998Z,14.90
2023-04-23T18:34:24.114Z,14.70
2023-04-23T18:40:26.617Z,14.50
2023-04-23T18:46:31.179Z,14.20
2023-04-23T18:52:33.671Z,14.00
2023-04-23T18:58:35.741Z,13.80
2023-04-23T19:04:38.061Z,13.60
2023-04-23T19:10:40.633Z,13.30
2023-04-23T19:16:42.728Z,13.30
2023-04-23T19:22:45.492Z,13.30
2023-04-23T19:28:47.431Z,13.30
2023-04-23T19:34:49.396Z,13.40
2023-04-23T19:40:51.383Z,13.60
2023-04-23T19:46:53.672Z,13.70
2023-04-23T19:52:56.089Z,13.80
2023-04-23T19:58:58.384Z,13.70
2023-04-23T20:05:00.571Z,13.80
2023-04-23T20:11:03.060Z,13.80
2023-04-23T20:17:05.470Z,13.90
2023-04-23T20:23:07.936Z,14.00
2023-04-23T20:29:10.349Z,13.90
2023-04-23T20:35:12.640Z,14.00
2023-04-23T20:41:15.367Z,14.20
2023-04-23T20:47:18.107Z,14.40
2023-04-23T20:53:20.249Z,14.40
2023-04-23T20:59:22.440Z,14.30
2023-04-23T21:05:24.737Z,14.10
2023-04-23T21:11:27.949Z,13.80
2023-04-23T21:17:30.538Z,13.60
2023-04-23T21:23:33.148Z,13.30
2023-04-23T21:29:36.048Z,13.10
2023-04-23T21:35:38.649Z,13.10
2023-04-23T21:41:41.261Z,13.20
2023-04-23T21:47:43.722Z,13.10
2023-04-23T21:53:46.617Z,13.10
2023-04-23T21:59:49.301Z,13.10
2023-04-23T22:05:52.675Z,13.20
2023-04-23T22:18:03.783Z,13.20
2023-04-23T22:24:07.394Z,13.20
2023-04-23T22:30:11.577Z,13.10
2023-04-23T22:36:14.281Z,13.00
2023-04-23T22:42:17.083Z,12.90
2023-04-23T22:48:19.688Z,12.70
2023-04-23T22:54:22.174Z,12.50
2023-04-23T23:00:24.520Z,12.30
2023-04-23T23:06:27.282Z,12.00
2023-04-23T23:12:29.566Z,11.90
2023-04-23T23:18:32.019Z,11.80
2023-04-23T23:24:34.923Z,11.60
2023-04-23T23:30:37.375Z,11.60
2023-04-23T23:36:39.761Z,11.70
2023-04-23T23:42:42.014Z,11.70
2023-04-23T23:48:47.334Z,11.80
2023-04-23T23:54:49.907Z,11.80
